sensor_id;sensor_type;location;lat;lon;timestamp;pressure;altitude;pressure_sealevel;temperature;humidity
70011;BME280;59543;37.950;-122.338;2023-04-25T00:00:36;101211.72;;;19.96;45.04
70011;BME280;59543;37.950;-122.338;2023-04-25T00:03:02;101208.84;;;19.76;44.12
70011;BME280;59543;37.950;-122.338;2023-04-25T00:05:28;101211.47;;;19.91;45.79
70011;BME280;59543;37.950;-122.338;2023-04-25T00:07:57;101210.47;;;19.99;45.84
70011;BME280;59543;37.950;-122.338;2023-04-25T00:10:24;101209.41;;;19.65;44.82
70011;BME280;59543;37.950;-122.338;2023-04-25T00:12:50;101213.50;;;19.82;44.79
70011;BME280;59543;37.950;-122.338;2023-04-25T00:15:17;101204.38;;;19.69;45.06
70011;BME280;59543;37.950;-122.338;2023-04-25T00:17:43;101203.47;;;19.40;46.26
70011;BME280;59543;37.950;-122.338;2023-04-25T00:20:11;101199.38;;;19.51;46.17
70011;BME280;59543;37.950;-122.338;2023-04-25T00:22:37;101202.09;;;19.51;45.25
70011;BME280;59543;37.950;-122.338;2023-04-25T00:25:05;101195.06;;;19.63;45.30
70011;BME280;59543;37.950;-122.338;2023-04-25T00:27:32;101194.63;;;19.59;44.61
70011;BME280;59543;37.950;-122.338;2023-04-25T00:29:58;101194.44;;;19.39;45.82
70011;BME280;59543;37.950;-122.338;2023-04-25T00:32:24;101190.13;;;19.52;45.61
70011;BME280;59543;37.950;-122.338;2023-04-25T00:34:50;101193.03;;;19.44;47.92
70011;BME280;59543;37.950;-122.338;2023-04-25T00:37:17;101192.28;;;19.56;46.79
70011;BME280;59543;37.950;-122.338;2023-04-25T00:39:44;101188.50;;;19.57;48.08
70011;BME280;59543;37.950;-122.338;2023-04-25T00:42:10;101195.94;;;19.42;46.96
70011;BME280;59543;37.950;-122.338;2023-04-25T00:44:37;101187.50;;;19.15;46.48
70011;BME280;59543;37.950;-122.338;2023-04-25T00:47:04;101190.94;;;19.24;47.57
70011;BME280;59543;37.950;-122.338;2023-04-25T00:49:31;101198.72;;;19.06;46.56
70011;BME280;59543;37.950;-122.338;2023-04-25T00:51:57;101201.41;;;19.21;47.19
70011;BME280;59543;37.950;-122.338;2023-04-25T00:54:23;101195.22;;;19.12;45.89
70011;BME280;59543;37.950;-122.338;2023-04-25T00:57:09;101194.72;;;19.23;46.60
70011;BME280;59543;37.950;-122.338;2023-04-25T00:59:37;101199.44;;;19.14;46.51
70011;BME280;59543;37.950;-122.338;2023-04-25T01:02:04;101186.78;;;19.07;46.49
70011;BME280;59543;37.950;-122.338;2023-04-25T01:04:31;101199.28;;;19.01;46.39
70011;BME280;59543;37.950;-122.338;2023-04-25T01:06:58;101196.72;;;18.93;46.26
70011;BME280;59543;37.950;-122.338;2023-04-25T01:09:27;101193.16;;;19.14;47.54
70011;BME280;59543;37.950;-122.338;2023-04-25T01:11:54;101190.88;;;19.17;46.45
70011;BME280;59543;37.950;-122.338;2023-04-25T01:14:20;101195.44;;;19.32;47.82
70011;BME280;59543;37.950;-122.338;2023-04-25T01:16:46;101194.56;;;19.53;45.47
70011;BME280;59543;37.950;-122.338;2023-04-25T01:19:16;101202.34;;;19.34;46.00
70011;BME280;59543;37.950;-122.338;2023-04-25T01:21:43;101200.16;;;19.45;46.82
70011;BME280;59543;37.950;-122.338;2023-04-25T01:24:11;101197.31;;;19.53;45.74
70011;BME280;59543;37.950;-122.338;2023-04-25T01:26:38;101203.94;;;19.44;45.76
70011;BME280;59543;37.950;-122.338;2023-04-25T01:29:07;101201.84;;;19.67;45.15
70011;BME280;59543;37.950;-122.338;2023-04-25T01:31:34;101189.66;;;19.20;44.97
70011;BME280;59543;37.950;-122.338;2023-04-25T01:34:01;101201.19;;;19.22;45.71
70011;BME280;59543;37.950;-122.338;2023-04-25T01:36:27;101206.28;;;19.47;46.95
70011;BME280;59543;37.950;-122.338;2023-04-25T01:38:54;101195.22;;;19.33;48.08
70011;BME280;59543;37.950;-122.338;2023-04-25T01:41:20;101201.72;;;19.32;47.59
70011;BME280;59543;37.950;-122.338;2023-04-25T01:43:48;101199.19;;;19.31;47.42
70011;BME280;59543;37.950;-122.338;2023-04-25T01:46:15;101203.78;;;19.09;48.55
70011;BME280;59543;37.950;-122.338;2023-04-25T01:48:41;101202.75;;;19.10;48.36
70011;BME280;59543;37.950;-122.338;2023-04-25T01:51:07;101208.53;;;19.00;48.84
70011;BME280;59543;37.950;-122.338;2023-04-25T01:53:34;101203.78;;;19.09;49.60
70011;BME280;59543;37.950;-122.338;2023-04-25T01:56:00;101201.75;;;18.60;50.59
70011;BME280;59543;37.950;-122.338;2023-04-25T01:58:26;101203.41;;;18.61;50.13
70011;BME280;59543;37.950;-122.338;2023-04-25T02:00:53;101209.34;;;18.35;51.28
70011;BME280;59543;37.950;-122.338;2023-04-25T02:03:19;101199.97;;;18.08;52.57
70011;BME280;59543;37.950;-122.338;2023-04-25T02:05:45;101198.56;;;17.97;52.76
70011;BME280;59543;37.950;-122.338;2023-04-25T02:08:11;101192.78;;;17.77;51.13
70011;BME280;59543;37.950;-122.338;2023-04-25T02:10:38;101204.31;;;17.64;51.35
70011;BME280;59543;37.950;-122.338;2023-04-25T02:13:04;101202.06;;;17.45;51.81
70011;BME280;59543;37.950;-122.338;2023-04-25T02:15:31;101202.69;;;17.32;53.04
70011;BME280;59543;37.950;-122.338;2023-04-25T02:17:57;101201.56;;;17.26;52.54
70011;BME280;59543;37.950;-122.338;2023-04-25T02:20:25;101205.84;;;17.21;53.10
70011;BME280;59543;37.950;-122.338;2023-04-25T02:22:52;101197.88;;;17.19;52.77
70011;BME280;59543;37.950;-122.338;2023-04-25T02:25:19;101201.38;;;16.74;54.67
70011;BME280;59543;37.950;-122.338;2023-04-25T02:27:46;101206.00;;;16.65;54.64
70011;BME280;59543;37.950;-122.338;2023-04-25T02:30:13;101210.00;;;16.38;55.81
70011;BME280;59543;37.950;-122.338;2023-04-25T02:32:39;101210.22;;;16.28;56.23
70011;BME280;59543;37.950;-122.338;2023-04-25T02:35:06;101215.13;;;16.33;56.53
70011;BME280;59543;37.950;-122.338;2023-04-25T02:37:34;101197.03;;;16.17;57.46
70011;BME280;59543;37.950;-122.338;2023-04-25T02:40:01;101212.88;;;15.89;58.50
70011;BME280;59543;37.950;-122.338;2023-04-25T02:42:28;101208.09;;;15.91;57.97
70011;BME280;59543;37.950;-122.338;2023-04-25T02:44:54;101214.06;;;15.62;59.16
70011;BME280;59543;37.950;-122.338;2023-04-25T02:47:21;101208.28;;;15.48;59.51
70011;BME280;59543;37.950;-122.338;2023-04-25T02:49:47;101201.84;;;15.08;61.22
70011;BME280;59543;37.950;-122.338;2023-04-25T02:52:13;101208.06;;;15.01;61.89
70011;BME280;59543;37.950;-122.338;2023-04-25T02:54:40;101202.47;;;14.86;61.80
70011;BME280;59543;37.950;-122.338;2023-04-25T02:57:07;101206.31;;;14.67;62.66
70011;BME280;59543;37.950;-122.338;2023-04-25T02:59:34;101205.75;;;14.55;62.57
70011;BME280;59543;37.950;-122.338;2023-04-25T03:02:00;101202.69;;;14.50;62.18
70011;BME280;59543;37.950;-122.338;2023-04-25T03:04:26;101201.44;;;14.36;62.42
70011;BME280;59543;37.950;-122.338;2023-04-25T03:06:53;101206.47;;;14.31;62.65
70011;BME280;59543;37.950;-122.338;2023-04-25T03:09:19;101197.31;;;14.24;62.93
70011;BME280;59543;37.950;-122.338;2023-04-25T03:11:46;101212.84;;;14.14;63.59
70011;BME280;59543;37.950;-122.338;2023-04-25T03:14:13;101211.13;;;14.13;63.86
70011;BME280;59543;37.950;-122.338;2023-04-25T03:16:39;101211.16;;;14.21;62.90
70011;BME280;59543;37.950;-122.338;2023-04-25T03:19:06;101211.72;;;13.99;63.54
70011;BME280;59543;37.950;-122.338;2023-04-25T03:21:34;101219.72;;;14.08;63.12
70011;BME280;59543;37.950;-122.338;2023-04-25T03:24:02;101224.84;;;14.19;62.44
70011;BME280;59543;37.950;-122.338;2023-04-25T03:26:29;101229.91;;;14.14;62.91
70011;BME280;59543;37.950;-122.338;2023-04-25T03:28:55;101226.75;;;13.93;63.85
70011;BME280;59543;37.950;-122.338;2023-04-25T03:31:21;101237.56;;;13.93;64.28
70011;BME280;59543;37.950;-122.338;2023-04-25T03:33:48;101228.16;;;13.79;64.81
70011;BME280;59543;37.950;-122.338;2023-04-25T03:36:14;101238.88;;;13.89;64.65
70011;BME280;59543;37.950;-122.338;2023-04-25T03:38:40;101240.41;;;13.91;64.30
70011;BME280;59543;37.950;-122.338;2023-04-25T03:41:10;101243.09;;;13.91;64.65
70011;BME280;59543;37.950;-122.338;2023-04-25T03:43:36;101245.53;;;13.77;65.00
70011;BME280;59543;37.950;-122.338;2023-04-25T03:46:02;101255.75;;;13.65;65.48
70011;BME280;59543;37.950;-122.338;2023-04-25T03:48:28;101254.38;;;13.61;65.72
70011;BME280;59543;37.950;-122.338;2023-04-25T03:50:55;101248.97;;;13.61;65.53
70011;BME280;59543;37.950;-122.338;2023-04-25T03:53:21;101263.19;;;13.63;65.74
70011;BME280;59543;37.950;-122.338;2023-04-25T03:55:47;101262.19;;;13.64;65.99
70011;BME280;59543;37.950;-122.338;2023-04-25T03:58:13;101270.13;;;13.47;66.82
70011;BME280;59543;37.950;-122.338;2023-04-25T04:00:40;101268.03;;;13.59;66.24
70011;BME280;59543;37.950;-122.338;2023-04-25T04:03:06;101266.03;;;13.43;66.50
70011;BME280;59543;37.950;-122.338;2023-04-25T04:05:32;101271.31;;;13.45;66.54
70011;BME280;59543;37.950;-122.338;2023-04-25T04:07:58;101281.81;;;13.48;65.87
70011;BME280;59543;37.950;-122.338;2023-04-25T04:10:25;101277.88;;;13.42;65.68
70011;BME280;59543;37.950;-122.338;2023-04-25T04:12:51;101285.81;;;13.44;65.73
70011;BME280;59543;37.950;-122.338;2023-04-25T04:15:18;101289.50;;;13.25;66.10
70011;BME280;59543;37.950;-122.338;2023-04-25T04:17:44;101281.22;;;13.09;66.95
70011;BME280;59543;37.950;-122.338;2023-04-25T04:20:11;101278.88;;;13.14;66.35
70011;BME280;59543;37.950;-122.338;2023-04-25T04:22:37;101285.06;;;13.06;66.64
70011;BME280;59543;37.950;-122.338;2023-04-25T04:25:03;101281.31;;;12.89;67.18
70011;BME280;59543;37.950;-122.338;2023-04-25T04:27:32;101287.31;;;12.83;67.68
70011;BME280;59543;37.950;-122.338;2023-04-25T04:29:58;101289.13;;;12.65;68.08
70011;BME280;59543;37.950;-122.338;2023-04-25T04:32:24;101301.06;;;12.62;68.62
70011;BME280;59543;37.950;-122.338;2023-04-25T04:34:51;101309.31;;;12.61;68.73
70011;BME280;59543;37.950;-122.338;2023-04-25T04:37:18;101312.88;;;12.51;69.40
70011;BME280;59543;37.950;-122.338;2023-04-25T04:39:44;101307.78;;;12.48;69.38
70011;BME280;59543;37.950;-122.338;2023-04-25T04:42:10;101318.72;;;12.47;69.31
70011;BME280;59543;37.950;-122.338;2023-04-25T04:44:37;101317.94;;;12.37;69.67
70011;BME280;59543;37.950;-122.338;2023-04-25T04:47:05;101321.34;;;12.29;69.76
70011;BME280;59543;37.950;-122.338;2023-04-25T04:49:32;101324.47;;;12.34;69.90
70011;BME280;59543;37.950;-122.338;2023-04-25T04:51:58;101320.69;;;12.07;71.00
70011;BME280;59543;37.950;-122.338;2023-04-25T04:54:26;101329.59;;;12.18;70.92
70011;BME280;59543;37.950;-122.338;2023-04-25T04:56:52;101321.94;;;12.13;71.62
70011;BME280;59543;37.950;-122.338;2023-04-25T04:59:19;101327.19;;;12.15;71.25
70011;BME280;59543;37.950;-122.338;2023-04-25T05:01:45;101327.91;;;11.97;71.75
70011;BME280;59543;37.950;-122.338;2023-04-25T05:04:12;101331.78;;;11.95;72.20
70011;BME280;59543;37.950;-122.338;2023-04-25T05:06:38;101333.19;;;11.79;72.89
70011;BME280;59543;37.950;-122.338;2023-04-25T05:09:05;101328.06;;;11.96;72.24
70011;BME280;59543;37.950;-122.338;2023-04-25T05:11:31;101321.94;;;11.84;72.72
70011;BME280;59543;37.950;-122.338;2023-04-25T05:13:58;101322.97;;;11.83;72.77
70011;BME280;59543;37.950;-122.338;2023-04-25T05:16:25;101333.88;;;11.72;73.10
70011;BME280;59543;37.950;-122.338;2023-04-25T05:18:51;101332.03;;;11.72;73.09
70011;BME280;59543;37.950;-122.338;2023-04-25T05:21:18;101339.53;;;11.68;73.51
70011;BME280;59543;37.950;-122.338;2023-04-25T05:23:44;101340.69;;;11.66;73.28
70011;BME280;59543;37.950;-122.338;2023-04-25T05:26:11;101337.53;;;11.61;73.70
70011;BME280;59543;37.950;-122.338;2023-04-25T05:28:40;101337.56;;;11.71;73.07
70011;BME280;59543;37.950;-122.338;2023-04-25T05:31:08;101338.72;;;11.58;73.84
70011;BME280;59543;37.950;-122.338;2023-04-25T05:33:35;101332.16;;;11.61;73.77
70011;BME280;59543;37.950;-122.338;2023-04-25T05:36:02;101335.84;;;11.60;73.74
70011;BME280;59543;37.950;-122.338;2023-04-25T05:38:28;101332.16;;;11.51;73.87
70011;BME280;59543;37.950;-122.338;2023-04-25T05:40:55;101328.91;;;11.48;73.69
70011;BME280;59543;37.950;-122.338;2023-04-25T05:43:22;101331.03;;;11.54;73.47
70011;BME280;59543;37.950;-122.338;2023-04-25T05:45:48;101337.25;;;11.54;73.96
70011;BME280;59543;37.950;-122.338;2023-04-25T05:48:15;101334.56;;;11.44;74.86
70011;BME280;59543;37.950;-122.338;2023-04-25T05:50:41;101336.41;;;11.34;75.72
70011;BME280;59543;37.950;-122.338;2023-04-25T05:53:07;101335.97;;;11.39;76.06
70011;BME280;59543;37.950;-122.338;2023-04-25T05:55:34;101339.09;;;11.34;76.67
70011;BME280;59543;37.950;-122.338;2023-04-25T05:58:01;101345.06;;;11.28;77.28
70011;BME280;59543;37.950;-122.338;2023-04-25T06:00:27;101345.19;;;11.27;77.37
70011;BME280;59543;37.950;-122.338;2023-04-25T06:02:54;101349.84;;;11.25;77.97
70011;BME280;59543;37.950;-122.338;2023-04-25T06:05:20;101347.88;;;11.27;78.15
70011;BME280;59543;37.950;-122.338;2023-04-25T06:07:46;101342.66;;;11.35;78.01
70011;BME280;59543;37.950;-122.338;2023-04-25T06:10:13;101337.53;;;11.32;77.88
70011;BME280;59543;37.950;-122.338;2023-04-25T06:12:39;101345.28;;;11.25;77.66
70011;BME280;59543;37.950;-122.338;2023-04-25T06:15:06;101344.91;;;11.39;76.77
70011;BME280;59543;37.950;-122.338;2023-04-25T06:17:33;101346.03;;;11.37;76.63
70011;BME280;59543;37.950;-122.338;2023-04-25T06:19:59;101350.28;;;11.39;76.09
70011;BME280;59543;37.950;-122.338;2023-04-25T06:22:25;101353.41;;;11.35;76.47
70011;BME280;59543;37.950;-122.338;2023-04-25T06:24:51;101346.47;;;11.42;76.98
70011;BME280;59543;37.950;-122.338;2023-04-25T06:27:18;101355.97;;;11.46;77.51
70011;BME280;59543;37.950;-122.338;2023-04-25T06:29:44;101356.38;;;11.32;78.42
70011;BME280;59543;37.950;-122.338;2023-04-25T06:32:10;101360.88;;;11.21;79.59
70011;BME280;59543;37.950;-122.338;2023-04-25T06:34:36;101356.63;;;11.19;79.55
70011;BME280;59543;37.950;-122.338;2023-04-25T06:37:02;101352.81;;;11.21;79.17
70011;BME280;59543;37.950;-122.338;2023-04-25T06:39:29;101347.00;;;11.16;79.84
70011;BME280;59543;37.950;-122.338;2023-04-25T06:41:55;101347.56;;;11.20;79.73
70011;BME280;59543;37.950;-122.338;2023-04-25T06:44:21;101354.81;;;11.29;79.01
70011;BME280;59543;37.950;-122.338;2023-04-25T06:46:49;101346.00;;;11.17;80.07
70011;BME280;59543;37.950;-122.338;2023-04-25T06:49:15;101343.75;;;11.23;79.48
70011;BME280;59543;37.950;-122.338;2023-04-25T06:51:42;101344.88;;;11.20;79.55
70011;BME280;59543;37.950;-122.338;2023-04-25T06:54:08;101341.63;;;11.16;79.59
70011;BME280;59543;37.950;-122.338;2023-04-25T06:56:34;101349.53;;;11.18;79.38
70011;BME280;59543;37.950;-122.338;2023-04-25T06:59:01;101340.88;;;11.05;79.85
70011;BME280;59543;37.950;-122.338;2023-04-25T07:01:27;101339.47;;;11.10;79.08
70011;BME280;59543;37.950;-122.338;2023-04-25T07:03:53;101337.63;;;11.01;79.89
70011;BME280;59543;37.950;-122.338;2023-04-25T07:06:20;101338.31;;;11.03;79.99
70011;BME280;59543;37.950;-122.338;2023-04-25T07:08:46;101337.75;;;10.99;80.25
70011;BME280;59543;37.950;-122.338;2023-04-25T07:11:12;101343.97;;;11.00;80.01
70011;BME280;59543;37.950;-122.338;2023-04-25T07:13:38;101342.38;;;10.88;80.74
70011;BME280;59543;37.950;-122.338;2023-04-25T07:16:05;101340.31;;;11.01;80.13
70011;BME280;59543;37.950;-122.338;2023-04-25T07:18:31;101332.91;;;10.93;80.72
70011;BME280;59543;37.950;-122.338;2023-04-25T07:20:57;101344.53;;;11.04;80.57
70011;BME280;59543;37.950;-122.338;2023-04-25T07:23:23;101346.22;;;10.95;80.89
70011;BME280;59543;37.950;-122.338;2023-04-25T07:25:49;101350.19;;;10.91;81.17
70011;BME280;59543;37.950;-122.338;2023-04-25T07:28:16;101347.22;;;10.94;81.31
70011;BME280;59543;37.950;-122.338;2023-04-25T07:30:42;101348.91;;;10.95;81.12
70011;BME280;59543;37.950;-122.338;2023-04-25T07:33:08;101347.75;;;10.88;81.17
70011;BME280;59543;37.950;-122.338;2023-04-25T07:35:34;101347.00;;;10.76;81.49
70011;BME280;59543;37.950;-122.338;2023-04-25T07:38:02;101340.81;;;10.85;80.98
70011;BME280;59543;37.950;-122.338;2023-04-25T07:40:28;101344.84;;;10.70;81.01
70011;BME280;59543;37.950;-122.338;2023-04-25T07:42:55;101338.22;;;10.74;80.66
70011;BME280;59543;37.950;-122.338;2023-04-25T07:45:21;101353.22;;;10.76;80.60
70011;BME280;59543;37.950;-122.338;2023-04-25T07:47:49;101355.22;;;10.74;80.35
70011;BME280;59543;37.950;-122.338;2023-04-25T07:50:15;101352.06;;;10.69;80.50
70011;BME280;59543;37.950;-122.338;2023-04-25T07:52:41;101351.53;;;10.75;79.80
70011;BME280;59543;37.950;-122.338;2023-04-25T07:55:08;101358.56;;;10.67;80.31
70011;BME280;59543;37.950;-122.338;2023-04-25T07:57:35;101353.50;;;10.73;80.01
70011;BME280;59543;37.950;-122.338;2023-04-25T08:00:01;101346.78;;;10.58;80.66
70011;BME280;59543;37.950;-122.338;2023-04-25T08:02:27;101352.88;;;10.60;80.34
70011;BME280;59543;37.950;-122.338;2023-04-25T08:04:54;101344.63;;;10.52;81.02
70011;BME280;59543;37.950;-122.338;2023-04-25T08:07:20;101337.84;;;10.58;80.45
70011;BME280;59543;37.950;-122.338;2023-04-25T08:09:47;101339.13;;;10.53;80.88
70011;BME280;59543;37.950;-122.338;2023-04-25T08:12:13;101326.59;;;10.43;81.01
70011;BME280;59543;37.950;-122.338;2023-04-25T08:14:39;101339.84;;;10.35;81.64
70011;BME280;59543;37.950;-122.338;2023-04-25T08:17:05;101330.41;;;10.40;81.52
70011;BME280;59543;37.950;-122.338;2023-04-25T08:19:32;101330.41;;;10.40;81.68
70011;BME280;59543;37.950;-122.338;2023-04-25T08:21:58;101330.81;;;10.36;81.65
70011;BME280;59543;37.950;-122.338;2023-04-25T08:24:24;101331.88;;;10.44;81.35
70011;BME280;59543;37.950;-122.338;2023-04-25T08:26:51;101334.63;;;10.33;81.94
70011;BME280;59543;37.950;-122.338;2023-04-25T08:29:17;101327.31;;;10.45;81.89
70011;BME280;59543;37.950;-122.338;2023-04-25T08:31:43;101333.78;;;10.33;82.59
70011;BME280;59543;37.950;-122.338;2023-04-25T08:34:10;101327.19;;;10.25;83.23
70011;BME280;59543;37.950;-122.338;2023-04-25T08:36:37;101323.28;;;10.29;83.82
70011;BME280;59543;37.950;-122.338;2023-04-25T08:39:03;101328.75;;;10.49;82.84
70011;BME280;59543;37.950;-122.338;2023-04-25T08:41:30;101330.97;;;10.44;82.90
70011;BME280;59543;37.950;-122.338;2023-04-25T08:43:56;101333.25;;;10.39;83.13
70011;BME280;59543;37.950;-122.338;2023-04-25T08:46:25;101335.66;;;10.42;83.52
70011;BME280;59543;37.950;-122.338;2023-04-25T08:48:53;101331.97;;;10.43;83.74
70011;BME280;59543;37.950;-122.338;2023-04-25T08:51:24;101339.06;;;10.44;83.97
70011;BME280;59543;37.950;-122.338;2023-04-25T08:53:52;101332.34;;;10.59;82.96
70011;BME280;59543;37.950;-122.338;2023-04-25T08:56:18;101335.59;;;10.53;83.80
70011;BME280;59543;37.950;-122.338;2023-04-25T08:58:49;101324.81;;;10.53;84.02
70011;BME280;59543;37.950;-122.338;2023-04-25T09:01:18;101324.09;;;10.51;84.30
70011;BME280;59543;37.950;-122.338;2023-04-25T09:03:45;101325.59;;;10.44;84.66
70011;BME280;59543;37.950;-122.338;2023-04-25T09:06:13;101317.16;;;10.48;85.13
70011;BME280;59543;37.950;-122.338;2023-04-25T09:08:39;101319.25;;;10.45;85.26
70011;BME280;59543;37.950;-122.338;2023-04-25T09:11:09;101312.56;;;10.39;85.51
70011;BME280;59543;37.950;-122.338;2023-04-25T09:13:35;101316.69;;;10.43;85.24
70011;BME280;59543;37.950;-122.338;2023-04-25T09:16:01;101313.97;;;10.34;85.39
70011;BME280;59543;37.950;-122.338;2023-04-25T09:18:32;101308.88;;;10.40;85.09
70011;BME280;59543;37.950;-122.338;2023-04-25T09:23:39;101298.94;;;10.31;85.10
70011;BME280;59543;37.950;-122.338;2023-04-25T09:26:07;101302.97;;;10.25;85.06
70011;BME280;59543;37.950;-122.338;2023-04-25T09:28:35;101298.94;;;10.31;84.73
70011;BME280;59543;37.950;-122.338;2023-04-25T09:31:01;101300.81;;;10.19;85.05
70011;BME280;59543;37.950;-122.338;2023-04-25T09:33:30;101302.34;;;10.12;85.24
70011;BME280;59543;37.950;-122.338;2023-04-25T09:36:09;101290.22;;;10.18;85.40
70011;BME280;59543;37.950;-122.338;2023-04-25T09:38:45;101294.28;;;10.12;85.85
70011;BME280;59543;37.950;-122.338;2023-04-25T09:41:12;101290.88;;;10.10;85.88
70011;BME280;59543;37.950;-122.338;2023-04-25T09:43:39;101293.22;;;10.24;84.85
70011;BME280;59543;37.950;-122.338;2023-04-25T09:46:10;101283.78;;;10.09;86.14
70011;BME280;59543;37.950;-122.338;2023-04-25T09:48:36;101278.69;;;10.06;86.02
70011;BME280;59543;37.950;-122.338;2023-04-25T09:51:13;101284.25;;;10.14;85.93
70011;BME280;59543;37.950;-122.338;2023-04-25T09:53:41;101279.00;;;10.13;86.34
70011;BME280;59543;37.950;-122.338;2023-04-25T09:56:10;101276.13;;;10.04;86.64
70011;BME280;59543;37.950;-122.338;2023-04-25T09:58:38;101277.00;;;10.05;86.88
70011;BME280;59543;37.950;-122.338;2023-04-25T10:01:06;101280.22;;;9.99;87.17
70011;BME280;59543;37.950;-122.338;2023-04-25T10:03:35;101276.66;;;9.98;87.58
70011;BME280;59543;37.950;-122.338;2023-04-25T10:06:03;101276.38;;;10.01;87.38
70011;BME280;59543;37.950;-122.338;2023-04-25T10:08:32;101273.63;;;9.92;87.91
70011;BME280;59543;37.950;-122.338;2023-04-25T10:11:06;101274.56;;;10.02;87.66
70011;BME280;59543;37.950;-122.338;2023-04-25T10:13:33;101280.66;;;10.04;87.35
70011;BME280;59543;37.950;-122.338;2023-04-25T10:16:01;101272.16;;;9.99;87.55
70011;BME280;59543;37.950;-122.338;2023-04-25T10:18:29;101272.47;;;10.05;87.22
70011;BME280;59543;37.950;-122.338;2023-04-25T10:21:00;101277.84;;;10.05;87.31
70011;BME280;59543;37.950;-122.338;2023-04-25T10:23:27;101269.88;;;10.04;87.09
70011;BME280;59543;37.950;-122.338;2023-04-25T10:25:55;101275.78;;;9.98;87.99
70011;BME280;59543;37.950;-122.338;2023-04-25T10:28:21;101278.28;;;9.90;88.29
70011;BME280;59543;37.950;-122.338;2023-04-25T10:33:36;101282.16;;;9.97;88.54
70011;BME280;59543;37.950;-122.338;2023-04-25T10:36:13;101285.13;;;9.94;88.13
70011;BME280;59543;37.950;-122.338;2023-04-25T10:38:42;101281.44;;;9.95;88.22
70011;BME280;59543;37.950;-122.338;2023-04-25T10:41:10;101282.81;;;9.89;88.32
70011;BME280;59543;37.950;-122.338;2023-04-25T10:43:44;101280.84;;;9.91;87.25
70011;BME280;59543;37.950;-122.338;2023-04-25T10:46:19;101288.38;;;9.97;86.63
70011;BME280;59543;37.950;-122.338;2023-04-25T10:48:56;101289.81;;;10.01;85.87
70011;BME280;59543;37.950;-122.338;2023-04-25T10:51:30;101289.97;;;10.00;85.67
70011;BME280;59543;37.950;-122.338;2023-04-25T10:54:04;101285.69;;;9.97;86.09
70011;BME280;59543;37.950;-122.338;2023-04-25T10:56:39;101282.81;;;9.89;86.38
70011;BME280;59543;37.950;-122.338;2023-04-25T10:59:17;101288.13;;;9.79;86.73
70011;BME280;59543;37.950;-122.338;2023-04-25T11:01:52;101287.75;;;9.84;85.89
70011;BME280;59543;37.950;-122.338;2023-04-25T11:04:30;101283.59;;;9.80;86.18
70011;BME280;59543;37.950;-122.338;2023-04-25T11:09:50;101283.59;;;9.80;86.57
70011;BME280;59543;37.950;-122.338;2023-04-25T11:12:16;101277.31;;;9.70;86.61
70011;BME280;59543;37.950;-122.338;2023-04-25T11:14:43;101270.84;;;9.72;87.37
70011;BME280;59543;37.950;-122.338;2023-04-25T11:17:09;101263.88;;;9.70;87.59
70011;BME280;59543;37.950;-122.338;2023-04-25T11:19:37;101261.19;;;9.70;87.39
70011;BME280;59543;37.950;-122.338;2023-04-25T11:22:03;101270.75;;;9.62;87.17
70011;BME280;59543;37.950;-122.338;2023-04-25T11:24:31;101263.19;;;9.56;87.78
70011;BME280;59543;37.950;-122.338;2023-04-25T11:27:01;101260.66;;;9.55;88.19
70011;BME280;59543;37.950;-122.338;2023-04-25T11:29:32;101268.00;;;9.53;87.74
70011;BME280;59543;37.950;-122.338;2023-04-25T11:31:59;101268.47;;;9.58;88.06
70011;BME280;59543;37.950;-122.338;2023-04-25T11:34:31;101270.00;;;9.39;88.17
70011;BME280;59543;37.950;-122.338;2023-04-25T11:36:59;101273.22;;;9.33;88.79
70011;BME280;59543;37.950;-122.338;2023-04-25T11:39:27;101282.69;;;9.37;88.62
70011;BME280;59543;37.950;-122.338;2023-04-25T11:41:54;101283.22;;;9.31;88.28
70011;BME280;59543;37.950;-122.338;2023-04-25T11:44:21;101274.44;;;9.29;88.80
70011;BME280;59543;37.950;-122.338;2023-04-25T11:46:48;101273.91;;;9.35;87.84
70011;BME280;59543;37.950;-122.338;2023-04-25T11:49:15;101273.59;;;9.29;87.93
70011;BME280;59543;37.950;-122.338;2023-04-25T11:51:45;101278.31;;;9.36;87.67
70011;BME280;59543;37.950;-122.338;2023-04-25T11:54:12;101284.47;;;9.27;88.56
70011;BME280;59543;37.950;-122.338;2023-04-25T11:56:42;101285.41;;;9.26;87.99
70011;BME280;59543;37.950;-122.338;2023-04-25T11:59:09;101282.63;;;9.28;87.76
70011;BME280;59543;37.950;-122.338;2023-04-25T12:01:37;101274.94;;;9.23;88.18
70011;BME280;59543;37.950;-122.338;2023-04-25T12:04:18;101262.75;;;9.19;87.18
70011;BME280;59543;37.950;-122.338;2023-04-25T12:06:46;101259.59;;;9.14;87.30
70011;BME280;59543;37.950;-122.338;2023-04-25T12:09:15;101252.53;;;9.13;88.20
70011;BME280;59543;37.950;-122.338;2023-04-25T12:11:48;101259.50;;;9.04;89.55
70011;BME280;59543;37.950;-122.338;2023-04-25T12:14:28;101257.56;;;9.06;89.36
70011;BME280;59543;37.950;-122.338;2023-04-25T12:17:00;101254.75;;;9.08;88.84
70011;BME280;59543;37.950;-122.338;2023-04-25T12:19:31;101259.50;;;9.04;88.68
70011;BME280;59543;37.950;-122.338;2023-04-25T12:22:00;101254.56;;;8.88;89.25
70011;BME280;59543;37.950;-122.338;2023-04-25T12:24:27;101251.28;;;8.74;88.42
70011;BME280;59543;37.950;-122.338;2023-04-25T12:27:00;101245.19;;;8.72;88.57
70011;BME280;59543;37.950;-122.338;2023-04-25T12:29:28;101262.03;;;8.74;88.99
70011;BME280;59543;37.950;-122.338;2023-04-25T12:31:55;101252.16;;;8.74;88.46